Time;durP1;ratioP1;P1;durP2;ratioP2;P2;SDS_P1;SDS_P2;PMS_P1;PMS_P2;Temp;Humidity;BMP_temperature;BMP_pressure;BME280_temperature;BME280_humidity;BME280_pressure;Samples;Min_cycle;Max_cycle;Signal;HPM_P1;HPM_P2
2021/03/07 00:01:26;;;;;;;303.27;91.57;;;;;;;-3.98;72.18;99809.44;4981395;28;20095;-67
2021/03/07 00:03:51;;;;;;;302.50;90.33;;;;;;;-4.01;72.36;99808.41;4977284;28;20027;-67
2021/03/07 00:06:16;;;;;;;303.77;92.37;;;;;;;-4.05;72.77;99796.50;4979136;28;20130;-66
2021/03/07 00:08:42;;;;;;;296.53;86.53;;;;;;;-4.14;72.60;99786.81;4979030;28;20026;-67
2021/03/07 00:11:07;;;;;;;301.73;88.93;;;;;;;-4.12;73.33;99796.91;4981204;28;20427;-67
2021/03/07 00:13:33;;;;;;;310.13;92.00;;;;;;;-4.13;72.50;99792.69;4978198;28;20340;-67
2021/03/07 00:15:58;;;;;;;306.77;90.13;;;;;;;-4.13;73.31;99786.03;4980196;28;20117;-67
2021/03/07 00:18:23;;;;;;;317.20;100.70;;;;;;;-4.11;73.18;99789.47;4977981;28;20360;-67
2021/03/07 00:20:49;;;;;;;305.17;89.90;;;;;;;-4.12;73.19;99781.91;4976299;28;20042;-67
2021/03/07 00:23:14;;;;;;;308.57;93.67;;;;;;;-4.10;73.46;99783.69;4979184;28;20073;-66
2021/03/07 00:25:40;;;;;;;309.70;93.13;;;;;;;-4.10;72.47;99786.22;4977658;28;20043;-66
2021/03/07 00:28:05;;;;;;;315.97;92.77;;;;;;;-4.20;72.53;99781.47;4980048;28;20296;-67
2021/03/07 00:30:31;;;;;;;312.07;91.40;;;;;;;-4.25;73.05;99765.31;4978647;28;20030;-67
2021/03/07 00:32:56;;;;;;;314.67;93.70;;;;;;;-4.23;73.30;99766.25;4978812;28;20041;-67
2021/03/07 00:35:22;;;;;;;311.10;91.13;;;;;;;-4.23;73.52;99771.25;4979377;28;20038;-67
2021/03/07 00:37:47;;;;;;;309.97;89.47;;;;;;;-4.19;73.20;99764.00;4980042;28;20022;-67
2021/03/07 00:40:13;;;;;;;312.77;90.70;;;;;;;-4.18;73.65;99757.38;4977850;28;20027;-67
2021/03/07 00:42:47;;;;;;;322.63;93.43;;;;;;;-4.20;73.57;99758.94;4978153;28;20105;-65
2021/03/07 00:45:14;;;;;;;315.03;90.60;;;;;;;-4.28;72.90;99760.13;4979099;28;20321;-67
2021/03/07 00:47:40;;;;;;;325.03;92.93;;;;;;;-4.28;73.89;99755.09;4979330;28;20543;-66
2021/03/07 00:50:24;;;;;;;310.93;91.23;;;;;;;-4.12;74.12;99759.38;4976803;28;20405;-66
2021/03/07 00:52:50;;;;;;;237.17;78.23;;;;;;;-4.20;73.41;99754.78;4976122;28;20274;-68
2021/03/07 00:55:15;;;;;;;206.20;77.03;;;;;;;-4.18;74.61;99753.22;4975948;28;20282;-68
2021/03/07 00:57:40;;;;;;;231.03;80.27;;;;;;;-4.18;73.66;99742.34;4978056;28;20065;-65
2021/03/07 01:00:28;;;;;;;274.17;86.17;;;;;;;-4.16;73.38;99738.31;4978437;28;20027;-67
2021/03/07 01:02:54;;;;;;;247.87;83.13;;;;;;;-4.24;73.90;99737.84;4979245;28;20279;-68
2021/03/07 01:05:21;;;;;;;265.67;86.87;;;;;;;-4.31;73.88;99725.78;4979271;28;20306;-66
2021/03/07 01:07:46;;;;;;;278.00;87.00;;;;;;;-4.31;74.72;99729.91;4977394;28;20652;-66
2021/03/07 01:10:15;;;;;;;281.23;85.90;;;;;;;-4.31;75.04;99724.91;4977330;28;20285;-66
2021/03/07 01:12:41;;;;;;;281.63;85.23;;;;;;;-4.29;74.86;99726.75;4979249;28;20023;-67
2021/03/07 01:15:08;;;;;;;283.90;86.10;;;;;;;-4.29;74.15;99725.88;4978562;28;20278;-67
2021/03/07 01:17:34;;;;;;;292.27;87.50;;;;;;;-4.37;74.52;99719.56;4978320;28;20512;-68
2021/03/07 01:19:59;;;;;;;294.53;89.23;;;;;;;-4.38;74.71;99708.69;4977387;28;20331;-66
2021/03/07 01:22:24;;;;;;;286.87;89.30;;;;;;;-4.46;74.16;99714.03;4977885;28;20038;-67
2021/03/07 01:24:50;;;;;;;294.80;90.70;;;;;;;-4.55;74.38;99703.50;4977233;28;20026;-68
2021/03/07 01:27:15;;;;;;;292.10;88.87;;;;;;;-4.59;74.41;99707.47;4976661;28;20045;-66
2021/03/07 01:29:41;;;;;;;291.20;89.30;;;;;;;-4.64;74.94;99704.72;4977614;28;20037;-66
2021/03/07 01:32:06;;;;;;;288.73;86.30;;;;;;;-4.66;75.05;99705.38;4975850;28;20037;-67
2021/03/07 01:34:32;;;;;;;280.03;85.07;;;;;;;-4.62;75.46;99692.28;4978090;28;20030;-67
2021/03/07 01:36:57;;;;;;;290.90;90.73;;;;;;;-4.65;74.77;99680.47;4976763;28;20097;-67
2021/03/07 01:39:23;;;;;;;291.30;86.80;;;;;;;-4.68;74.76;99681.94;4976965;28;20376;-66
2021/03/07 01:41:49;;;;;;;293.50;88.13;;;;;;;-4.67;74.65;99688.66;4978269;28;20372;-66
2021/03/07 01:44:14;;;;;;;306.93;95.67;;;;;;;-4.61;75.61;99674.00;4977222;28;20329;-67
2021/03/07 01:46:39;;;;;;;299.77;88.37;;;;;;;-4.54;75.35;99670.22;4978212;28;20043;-66
2021/03/07 01:49:05;;;;;;;299.87;88.20;;;;;;;-4.52;74.88;99667.00;4977206;28;20389;-66
2021/03/07 01:51:30;;;;;;;325.33;102.90;;;;;;;-4.41;74.53;99675.97;4976354;28;20026;-67
2021/03/07 01:53:56;;;;;;;310.20;90.77;;;;;;;-4.44;74.68;99665.81;4976561;28;20081;-67
2021/03/07 01:56:22;;;;;;;299.53;87.73;;;;;;;-4.41;74.30;99672.63;4976420;28;20031;-66
2021/03/07 01:58:51;;;;;;;304.97;87.57;;;;;;;-4.40;74.56;99666.84;4973626;28;20030;-66
2021/03/07 02:01:16;;;;;;;307.23;87.70;;;;;;;-4.43;74.53;99666.66;4978456;28;20315;-66
2021/03/07 02:03:55;;;;;;;306.57;87.77;;;;;;;-4.15;73.94;99660.78;4977109;28;20361;-67
2021/03/07 02:06:21;;;;;;;303.23;89.53;;;;;;;-4.10;73.48;99663.53;4975316;28;20347;-67
2021/03/07 02:08:50;;;;;;;306.50;88.83;;;;;;;-4.06;73.82;99662.06;4974381;28;20317;-67
2021/03/07 02:11:16;;;;;;;305.83;86.00;;;;;;;-4.10;73.07;99656.03;4978541;28;20643;-67
2021/03/07 02:13:43;;;;;;;294.13;88.97;;;;;;;-4.14;73.46;99641.59;4977519;28;20276;-68
2021/03/07 02:16:14;;;;;;;306.47;89.70;;;;;;;-4.11;73.02;99643.41;4975891;28;20053;-68
2021/03/07 02:18:41;;;;;;;315.17;90.23;;;;;;;-4.07;73.24;99648.66;4976918;28;20266;-67
2021/03/07 02:21:24;;;;;;;316.60;89.03;;;;;;;-4.07;73.22;99642.81;4977246;28;20321;-67
2021/03/07 02:24:08;;;;;;;319.60;91.33;;;;;;;-4.16;73.43;99635.69;4977229;28;20271;-67
2021/03/07 02:26:37;;;;;;;300.90;86.60;;;;;;;-4.25;73.92;99633.53;4977318;28;20258;-66
2021/03/07 02:29:04;;;;;;;299.97;91.43;;;;;;;-4.29;74.18;99635.78;4977319;28;20333;-66
2021/03/07 02:31:32;;;;;;;298.00;88.47;;;;;;;-4.39;74.36;99629.41;4977893;28;20266;-66
2021/03/07 02:34:03;;;;;;;291.17;87.90;;;;;;;-4.15;73.95;99630.72;4976159;28;20293;-68
2021/03/07 02:36:38;;;;;;;295.53;89.23;;;;;;;-4.07;73.32;99630.31;4977110;28;20270;-68
2021/03/07 02:39:07;;;;;;;280.43;85.40;;;;;;;-4.04;73.19;99635.47;4977396;28;20277;-65
2021/03/07 02:41:34;;;;;;;285.63;86.67;;;;;;;-3.98;71.98;99626.63;4977316;28;20034;-68
2021/03/07 02:44:04;;;;;;;281.07;89.20;;;;;;;-3.98;72.48;99631.63;4976328;28;20340;-66
2021/03/07 02:46:31;;;;;;;274.30;82.77;;;;;;;-4.16;72.97;99621.50;4983541;28;20320;-68
2021/03/07 02:48:59;;;;;;;277.93;84.03;;;;;;;-4.26;72.82;99626.78;4983669;28;20297;-67
2021/03/07 02:51:33;;;;;;;276.07;84.90;;;;;;;-4.32;72.24;99623.06;4979916;28;20281;-67
2021/03/07 02:54:04;;;;;;;267.53;85.57;;;;;;;-4.44;73.25;99632.41;4979868;28;20282;-67
2021/03/07 02:56:32;;;;;;;272.10;85.53;;;;;;;-4.55;73.37;99620.94;4983313;28;20278;-67
2021/03/07 02:59:01;;;;;;;277.87;84.80;;;;;;;-4.60;73.39;99615.69;4982038;28;20544;-67
2021/03/07 03:01:29;;;;;;;280.40;86.63;;;;;;;-4.71;73.23;99617.56;4981515;28;20292;-67
2021/03/07 03:03:55;;;;;;;278.30;84.60;;;;;;;-4.73;73.72;99620.78;4982190;28;20270;-66
2021/03/07 03:06:21;;;;;;;280.83;85.73;;;;;;;-4.75;74.43;99617.31;4980364;28;20571;-67
2021/03/07 03:08:53;;;;;;;288.07;89.17;;;;;;;-4.77;74.74;99619.75;4981801;28;20089;-65
2021/03/07 03:11:23;;;;;;;282.23;85.67;;;;;;;-4.78;74.65;99612.16;4979593;28;20297;-64
2021/03/07 03:13:50;;;;;;;276.50;86.67;;;;;;;-4.82;74.75;99613.59;4980540;28;20277;-65
2021/03/07 03:16:17;;;;;;;279.17;85.07;;;;;;;-4.87;74.96;99607.47;4976024;28;20673;-65
2021/03/07 03:18:44;;;;;;;274.03;84.17;;;;;;;-4.87;74.90;99612.47;4974217;28;20709;-64
2021/03/07 03:21:12;;;;;;;274.77;85.03;;;;;;;-4.93;74.34;99614.66;4977976;28;20290;-65
2021/03/07 03:23:39;;;;;;;279.13;85.33;;;;;;;-4.99;75.10;99614.28;4979331;28;20305;-65
2021/03/07 03:26:06;;;;;;;275.47;84.50;;;;;;;-5.00;75.66;99614.19;4981228;28;20281;-64
2021/03/07 03:28:32;;;;;;;277.27;86.70;;;;;;;-5.07;75.58;99600.50;4981156;28;20713;-65
2021/03/07 03:30:58;;;;;;;281.50;86.97;;;;;;;-4.98;75.15;99602.66;4980283;28;20270;-65
2021/03/07 03:33:27;;;;;;;281.60;84.60;;;;;;;-4.88;75.34;99598.25;4980999;28;20065;-65
2021/03/07 03:35:53;;;;;;;280.80;85.40;;;;;;;-4.78;75.28;99602.13;4980405;28;20042;-65
2021/03/07 03:38:20;;;;;;;280.37;84.67;;;;;;;-4.84;74.85;99589.31;4980186;28;20658;-67
2021/03/07 03:40:54;;;;;;;280.43;82.87;;;;;;;-4.82;75.36;99591.09;4977507;28;20305;-68
2021/03/07 03:43:21;;;;;;;282.70;83.63;;;;;;;-4.95;75.13;99581.19;4978606;28;20298;-68
2021/03/07 03:45:48;;;;;;;279.83;85.80;;;;;;;-4.92;75.31;99596.34;4979206;28;20655;-68
2021/03/07 03:48:21;;;;;;;269.33;83.17;;;;;;;-4.94;76.02;99589.56;4978968;28;20290;-68
2021/03/07 03:50:48;;;;;;;274.50;85.20;;;;;;;-5.02;75.58;99591.63;4978914;28;20514;-68
2021/03/07 03:53:17;;;;;;;274.47;83.03;;;;;;;-5.00;75.37;99591.69;4978747;28;20718;-67
2021/03/07 03:55:47;;;;;;;276.57;83.57;;;;;;;-4.99;75.67;99589.28;4979504;28;20274;-68
2021/03/07 03:58:15;;;;;;;258.27;82.73;;;;;;;-4.96;74.69;99586.94;4979206;28;20567;-68
2021/03/07 04:00:43;;;;;;;257.60;79.37;;;;;;;-4.81;74.47;99584.47;4978862;28;20301;-68
2021/03/07 04:03:13;;;;;;;263.20;82.83;;;;;;;-4.66;74.49;99590.31;4980066;28;20582;-68
2021/03/07 04:05:43;;;;;;;263.13;81.73;;;;;;;-4.54;73.27;99587.66;4980112;28;20312;-68
2021/03/07 04:08:08;;;;;;;269.27;83.27;;;;;;;-4.52;72.90;99594.47;4979535;28;20278;-68
2021/03/07 04:10:35;;;;;;;266.40;82.80;;;;;;;-4.39;72.39;99586.00;4980082;28;20269;-68
2021/03/07 04:13:01;;;;;;;269.23;83.73;;;;;;;-4.41;72.40;99590.06;4979683;28;20085;-68
2021/03/07 04:15:27;;;;;;;259.33;80.57;;;;;;;-4.48;72.67;99591.34;4979299;28;20266;-68
2021/03/07 04:17:53;;;;;;;259.57;83.27;;;;;;;-4.54;72.80;99590.16;4978555;28;20050;-66
2021/03/07 04:20:20;;;;;;;254.77;80.93;;;;;;;-4.57;72.48;99587.47;4979287;28;20281;-67
2021/03/07 04:22:48;;;;;;;256.97;81.93;;;;;;;-4.64;72.47;99594.66;4975324;28;20349;-67
2021/03/07 04:25:14;;;;;;;266.27;82.67;;;;;;;-4.79;73.01;99590.41;4979637;28;20329;-65
2021/03/07 04:27:40;;;;;;;268.03;84.70;;;;;;;-4.88;72.56;99593.25;4979185;28;20273;-65
2021/03/07 04:30:07;;;;;;;263.73;80.03;;;;;;;-4.93;73.43;99589.66;4979653;28;20262;-68
2021/03/07 04:32:33;;;;;;;263.83;81.77;;;;;;;-4.80;73.40;99587.06;4980094;28;20038;-67
2021/03/07 04:35:00;;;;;;;270.57;89.13;;;;;;;-4.70;73.45;99590.94;4977598;28;20282;-66
2021/03/07 04:37:26;;;;;;;265.90;83.70;;;;;;;-4.74;73.87;99587.41;4975994;28;20273;-66
2021/03/07 04:39:52;;;;;;;266.07;86.03;;;;;;;-4.70;73.24;99583.41;4976976;28;20572;-66
2021/03/07 04:42:17;;;;;;;270.27;87.23;;;;;;;-4.78;73.30;99583.00;4977415;28;20302;-67
2021/03/07 04:44:43;;;;;;;261.37;82.43;;;;;;;-4.82;73.02;99586.09;4977396;28;20027;-67
2021/03/07 04:47:08;;;;;;;264.93;83.93;;;;;;;-4.92;73.82;99575.50;4978795;28;20443;-67
2021/03/07 04:49:34;;;;;;;258.57;79.00;;;;;;;-4.97;74.27;99582.75;4977913;28;20057;-67
2021/03/07 04:51:59;;;;;;;259.27;81.20;;;;;;;-4.77;74.25;99579.72;4979497;28;20026;-67
2021/03/07 04:54:25;;;;;;;259.83;82.43;;;;;;;-4.62;73.94;99575.56;4977458;28;20081;-67
2021/03/07 04:56:51;;;;;;;256.53;81.93;;;;;;;-4.42;73.07;99576.69;4980342;28;20034;-67
2021/03/07 04:59:16;;;;;;;260.37;82.67;;;;;;;-4.30;71.92;99581.50;4978228;28;20272;-67
2021/03/07 05:01:42;;;;;;;261.40;82.23;;;;;;;-4.25;71.76;99565.09;4979185;28;20286;-67
2021/03/07 05:04:08;;;;;;;261.37;84.00;;;;;;;-4.23;71.22;99574.38;4978140;28;20126;-65
2021/03/07 05:06:38;;;;;;;258.13;82.90;;;;;;;-4.29;70.87;99569.06;4980287;28;20483;-66
2021/03/07 05:09:08;;;;;;;264.20;84.73;;;;;;;-4.39;72.43;99578.47;4976084;28;20372;-66
2021/03/07 05:11:34;;;;;;;259.43;83.73;;;;;;;-4.51;72.63;99580.31;4978146;28;20297;-66
2021/03/07 05:14:00;;;;;;;258.83;83.67;;;;;;;-4.62;72.57;99575.56;4979237;28;20699;-67
2021/03/07 05:16:28;;;;;;;266.43;87.87;;;;;;;-4.66;73.16;99567.81;4979405;28;20270;-67
2021/03/07 05:18:53;;;;;;;263.07;85.67;;;;;;;-4.74;73.34;99576.53;4978766;28;20270;-68
2021/03/07 05:21:19;;;;;;;258.43;85.87;;;;;;;-4.71;73.25;99577.56;4978974;28;20735;-67
2021/03/07 05:23:44;;;;;;;259.57;86.03;;;;;;;-4.70;73.29;99579.28;4978891;28;20037;-66
2021/03/07 05:26:10;;;;;;;253.40;83.50;;;;;;;-4.71;72.54;99572.56;4979089;28;20034;-66
2021/03/07 05:28:36;;;;;;;250.30;84.43;;;;;;;-4.76;72.36;99565.59;4978790;28;20072;-66
2021/03/07 05:31:02;;;;;;;257.10;86.20;;;;;;;-4.66;73.04;99565.31;4977935;28;20403;-65
2021/03/07 05:33:28;;;;;;;250.97;83.33;;;;;;;-4.53;72.79;99567.72;4978950;28;20037;-67
2021/03/07 05:35:54;;;;;;;256.10;88.20;;;;;;;-4.42;72.45;99561.66;4980043;28;20524;-72
2021/03/07 05:38:20;;;;;;;253.77;84.70;;;;;;;-4.44;72.22;99553.22;4980026;28;20313;-65
2021/03/07 05:40:46;;;;;;;254.63;86.23;;;;;;;-4.25;71.42;99545.94;4976658;28;20033;-67
2021/03/07 05:43:11;;;;;;;256.27;85.00;;;;;;;-4.17;71.29;99544.69;4977830;28;20274;-67
2021/03/07 05:45:37;;;;;;;259.60;88.33;;;;;;;-4.04;70.31;99540.31;4977872;28;20050;-67
2021/03/07 05:48:03;;;;;;;267.77;94.03;;;;;;;-3.98;69.85;99538.13;4976195;28;20046;-67
2021/03/07 05:50:29;;;;;;;261.60;86.53;;;;;;;-3.74;68.88;99541.94;4978089;28;20327;-67
2021/03/07 05:52:57;;;;;;;267.73;86.70;;;;;;;-3.51;67.98;99551.47;4979335;28;20308;-68
2021/03/07 05:55:24;;;;;;;269.80;89.77;;;;;;;-3.42;68.08;99546.94;4974494;28;20026;-67
2021/03/07 05:57:50;;;;;;;263.93;84.17;;;;;;;-3.38;68.51;99540.41;4975875;28;20282;-67
2021/03/07 06:00:19;;;;;;;278.77;94.83;;;;;;;-3.28;67.96;99535.09;4977556;28;20677;-67
2021/03/07 06:02:45;;;;;;;271.47;88.40;;;;;;;-3.22;67.59;99537.03;4978949;28;20276;-67
2021/03/07 06:05:12;;;;;;;274.33;89.93;;;;;;;-3.19;67.70;99535.53;4977719;28;20381;-66
2021/03/07 06:07:38;;;;;;;276.10;90.43;;;;;;;-3.11;67.88;99535.91;4975999;28;20336;-67
2021/03/07 06:10:10;;;;;;;282.47;91.77;;;;;;;-3.00;67.95;99547.31;4977945;28;20353;-67
2021/03/07 06:12:35;;;;;;;273.57;90.67;;;;;;;-3.05;67.06;99544.59;4978801;28;20678;-67
2021/03/07 06:15:02;;;;;;;276.17;90.47;;;;;;;-2.96;67.39;99541.66;4977775;28;20306;-67
2021/03/07 06:17:44;;;;;;;287.03;97.03;;;;;;;-2.77;66.53;99537.63;4977645;28;20037;-67
2021/03/07 06:20:13;;;;;;;278.80;90.90;;;;;;;-2.72;66.59;99539.50;4976231;28;20947;-67
2021/03/07 06:22:49;;;;;;;277.93;89.60;;;;;;;-2.71;66.91;99539.53;4978211;28;20284;-66
2021/03/07 06:25:15;;;;;;;273.23;95.57;;;;;;;-2.70;66.58;99543.78;4975721;28;20292;-67
2021/03/07 06:27:40;;;;;;;257.03;93.77;;;;;;;-2.70;66.92;99538.75;4977881;28;20266;-66
2021/03/07 06:30:07;;;;;;;263.03;92.20;;;;;;;-2.53;66.73;99547.09;4977506;28;20019;-67
2021/03/07 06:32:34;;;;;;;269.43;90.27;;;;;;;-2.38;66.99;99547.81;4978545;28;20027;-66
2021/03/07 06:34:59;;;;;;;272.40;93.57;;;;;;;-2.27;65.93;99548.31;4976512;28;20532;-67
2021/03/07 06:37:25;;;;;;;278.80;94.63;;;;;;;-2.17;65.31;99540.41;4977726;28;20266;-68
2021/03/07 06:39:51;;;;;;;278.17;94.77;;;;;;;-1.95;64.57;99545.59;4977035;28;20035;-68
2021/03/07 06:42:17;;;;;;;286.87;97.67;;;;;;;-1.88;64.30;99545.09;4978264;28;20395;-68
2021/03/07 06:44:55;;;;;;;295.67;105.60;;;;;;;-1.75;63.76;99543.97;4975945;28;20274;-67
2021/03/07 06:47:21;;;;;;;290.00;95.60;;;;;;;-1.83;64.10;99541.13;4977625;28;20647;-68
2021/03/07 06:49:47;;;;;;;303.87;105.33;;;;;;;-1.72;63.46;99534.06;4977169;28;20632;-68
2021/03/07 06:52:14;;;;;;;295.03;100.07;;;;;;;-1.59;63.27;99541.34;4978603;28;20304;-68
2021/03/07 06:54:40;;;;;;;302.80;102.63;;;;;;;-1.43;62.40;99539.53;4977111;28;20119;-68
2021/03/07 06:57:07;;;;;;;303.23;102.20;;;;;;;-1.34;61.67;99538.22;4976573;28;20282;-68
2021/03/07 06:59:33;;;;;;;311.67;104.40;;;;;;;-1.17;62.36;99545.69;4977820;28;20274;-67
2021/03/07 07:01:59;;;;;;;308.70;102.43;;;;;;;-0.97;62.56;99537.28;4977235;28;20042;-67
2021/03/07 07:04:37;;;;;;;334.27;117.20;;;;;;;-0.87;62.71;99532.63;4975603;28;20266;-67
2021/03/07 07:07:12;;;;;;;313.43;106.20;;;;;;;-0.73;62.24;99537.44;4974647;28;20023;-68
2021/03/07 07:09:38;;;;;;;314.08;106.22;;;;;;;-0.60;61.66;99538.78;4976916;28;20285;-66
2021/03/07 07:12:06;;;;;;;320.17;110.40;;;;;;;-0.44;61.09;99530.16;4976147;28;20066;-68
2021/03/07 07:14:41;;;;;;;319.37;111.17;;;;;;;-0.27;59.28;99529.13;4975040;28;20085;-67
2021/03/07 07:17:12;;;;;;;318.75;108.63;;;;;;;-0.10;56.95;99533.16;4976690;28;20042;-67
2021/03/07 07:19:39;;;;;;;323.80;110.10;;;;;;;-0.01;57.06;99519.25;4977264;28;20045;-68
2021/03/07 07:22:08;;;;;;;318.70;111.37;;;;;;;0.23;57.27;99523.44;4974962;28;20126;-68
2021/03/07 07:24:34;;;;;;;328.53;116.40;;;;;;;0.15;57.04;99519.78;4976437;28;20031;-67
2021/03/07 07:27:01;;;;;;;318.07;110.40;;;;;;;0.27;56.79;99523.59;4976571;28;20027;-67
2021/03/07 07:29:26;;;;;;;332.17;113.47;;;;;;;0.34;57.17;99509.56;4977615;28;20030;-67
2021/03/07 07:31:58;;;;;;;338.40;124.50;;;;;;;0.62;57.25;99513.91;4976793;28;20042;-68
2021/03/07 07:34:29;;;;;;;336.70;118.33;;;;;;;0.65;56.87;99519.91;4980736;28;20035;-67
2021/03/07 07:37:19;;;;;;;342.13;123.80;;;;;;;0.58;56.63;99518.00;4978952;28;20130;-67
2021/03/07 07:39:50;;;;;;;349.00;121.87;;;;;;;0.63;56.90;99513.97;4980839;28;20077;-66
2021/03/07 07:42:23;;;;;;;347.73;121.00;;;;;;;0.85;56.46;99506.28;4978041;28;20030;-66
2021/03/07 07:44:49;;;;;;;352.70;123.80;;;;;;;0.86;53.97;99505.50;4976760;28;20121;-66
2021/03/07 07:47:15;;;;;;;348.57;121.73;;;;;;;0.64;53.22;99505.56;4980774;28;20344;-66
2021/03/07 07:49:50;;;;;;;351.57;123.30;;;;;;;0.83;52.38;99497.81;4979934;28;20126;-66
2021/03/07 07:52:29;;;;;;;360.35;126.03;;;;;;;1.13;51.06;99494.59;4977541;28;20026;-67
2021/03/07 07:54:58;;;;;;;347.57;121.03;;;;;;;1.09;50.80;99502.88;4980710;28;20419;-67
2021/03/07 07:57:40;;;;;;;350.40;125.00;;;;;;;1.41;52.11;99494.63;4979164;28;20073;-66
2021/03/07 08:00:15;;;;;;;357.63;126.90;;;;;;;1.53;51.79;99499.22;4978116;28;20257;-66
2021/03/07 08:02:46;;;;;;;357.20;126.53;;;;;;;1.70;52.37;99491.31;4978195;28;20034;-67
2021/03/07 08:05:21;;;;;;;366.57;132.97;;;;;;;1.81;51.74;99489.97;4981026;28;20031;-67
2021/03/07 08:08:03;;;;;;;366.45;134.20;;;;;;;2.02;50.98;99486.34;4979382;28;20062;-67
2021/03/07 08:10:40;;;;;;;373.60;140.20;;;;;;;1.70;52.04;99481.22;4979099;28;20039;-67
2021/03/07 08:13:09;;;;;;;373.40;136.27;;;;;;;1.81;51.15;99476.47;4978981;28;20023;-66
2021/03/07 08:15:51;;;;;;;378.30;140.73;;;;;;;1.82;50.27;99476.50;4980011;28;20383;-67
2021/03/07 08:18:22;;;;;;;377.27;141.13;;;;;;;2.01;50.88;99471.97;4978862;28;20014;-66
2021/03/07 08:20:47;;;;;;;369.10;141.33;;;;;;;2.12;51.04;99468.09;4979379;28;20033;-68
2021/03/07 08:23:18;;;;;;;366.03;140.13;;;;;;;2.35;50.22;99472.09;4976747;28;20380;-66
2021/03/07 08:25:47;;;;;;;380.27;145.37;;;;;;;2.53;50.08;99467.53;4978478;28;20042;-67
2021/03/07 08:28:31;;;;;;;385.13;141.37;;;;;;;2.78;49.73;99463.09;4981040;28;20027;-68
2021/03/07 08:30:59;;;;;;;388.33;148.47;;;;;;;2.85;48.53;99448.09;4979709;28;20074;-67
2021/03/07 08:33:33;;;;;;;385.53;145.43;;;;;;;2.89;48.62;99447.34;4981577;28;20050;-67
2021/03/07 08:36:21;;;;;;;390.87;155.90;;;;;;;3.04;47.60;99446.88;4979041;28;20029;-67
2021/03/07 08:38:53;;;;;;;392.47;154.23;;;;;;;3.14;47.30;99448.81;4979515;28;20037;-67
2021/03/07 08:41:34;;;;;;;392.77;153.57;;;;;;;3.22;47.37;99440.53;4978561;28;20493;-66
2021/03/07 08:44:10;;;;;;;398.23;155.40;;;;;;;3.22;47.17;99435.47;4980285;28;20381;-66
2021/03/07 08:46:38;;;;;;;396.77;157.93;;;;;;;3.39;46.66;99435.03;4978282;28;20041;-66
2021/03/07 08:49:13;;;;;;;404.43;161.17;;;;;;;3.47;46.91;99429.31;4978994;28;20047;-68
2021/03/07 08:51:44;;;;;;;314.77;133.27;;;;;;;3.52;46.34;99421.81;4977452;28;20339;-67
2021/03/07 08:54:20;;;;;;;406.57;162.17;;;;;;;3.72;45.73;99424.75;4978882;28;20031;-67
2021/03/07 08:56:47;;;;;;;419.60;175.30;;;;;;;3.65;45.34;99422.06;4976126;28;20367;-66
2021/03/07 08:59:13;;;;;;;408.77;164.40;;;;;;;3.67;45.18;99414.50;4978572;28;20406;-66
2021/03/07 09:01:40;;;;;;;414.77;169.07;;;;;;;3.78;44.70;99413.03;4978873;28;20023;-66
2021/03/07 09:04:08;;;;;;;417.27;169.87;;;;;;;3.71;45.38;99412.88;4979013;28;20027;-66
2021/03/07 09:06:40;;;;;;;415.53;168.30;;;;;;;3.81;44.78;99404.66;4978872;28;20031;-67
2021/03/07 09:09:23;;;;;;;420.30;171.90;;;;;;;3.86;44.33;99405.59;4979415;28;20027;-66
2021/03/07 09:11:59;;;;;;;420.33;170.57;;;;;;;4.05;44.40;99400.06;4977311;28;20027;-67
2021/03/07 09:14:32;;;;;;;418.77;166.55;;;;;;;4.08;44.21;99392.50;4977939;28;20280;-67
2021/03/07 09:16:59;;;;;;;422.60;170.10;;;;;;;4.10;43.37;99393.38;4979146;28;20061;-67
2021/03/07 09:19:28;;;;;;;421.33;174.67;;;;;;;4.26;43.09;99392.84;4978361;28;20027;-67
2021/03/07 09:22:13;;;;;;;426.87;171.13;;;;;;;4.46;43.55;99383.03;4979072;28;20019;-67
2021/03/07 09:24:49;;;;;;;427.67;174.90;;;;;;;4.55;43.45;99388.25;4978109;28;20034;-66
2021/03/07 09:27:15;;;;;;;431.20;182.00;;;;;;;4.66;42.67;99379.16;4978584;28;20030;-66
2021/03/07 09:30:13;;;;;;;430.33;183.97;;;;;;;4.95;42.44;99383.00;4978065;28;20030;-66
2021/03/07 09:32:50;;;;;;;434.60;183.47;;;;;;;4.99;42.18;99376.28;4969039;28;20035;-68
2021/03/07 09:35:21;;;;;;;433.70;186.47;;;;;;;4.95;41.52;99364.38;4979399;28;20035;-67
2021/03/07 09:38:16;;;;;;;420.17;186.87;;;;;;;5.10;42.01;99366.28;4976768;28;20414;-67
2021/03/07 09:40:43;;;;;;;433.80;193.30;;;;;;;4.96;40.32;99363.56;4969018;28;20082;-67
2021/03/07 09:43:12;;;;;;;435.03;193.80;;;;;;;4.88;41.32;99355.78;4978267;28;20026;-67
2021/03/07 09:45:39;;;;;;;437.40;194.73;;;;;;;5.00;41.47;99353.47;4978720;28;20186;-67
2021/03/07 09:48:06;;;;;;;435.53;194.27;;;;;;;5.16;41.20;99354.53;4977226;28;20057;-67
2021/03/07 09:50:33;;;;;;;423.00;198.80;;;;;;;5.21;41.41;99352.03;4977518;28;20092;-67
2021/03/07 09:52:58;;;;;;;427.30;200.80;;;;;;;5.10;42.05;99330.69;4973704;28;20027;-67
2021/03/07 09:55:25;;;;;;;433.40;206.53;;;;;;;5.02;41.79;99343.28;4977355;28;20053;-67
2021/03/07 09:58:02;;;;;;;420.57;211.03;;;;;;;5.34;42.38;99338.66;4976625;28;20050;-67
2021/03/07 10:00:28;;;;;;;421.17;205.33;;;;;;;5.46;42.55;99338.81;4969724;28;20023;-67
2021/03/07 10:02:54;;;;;;;424.43;204.93;;;;;;;5.48;42.20;99330.38;4974700;28;20126;-67
2021/03/07 10:05:19;;;;;;;431.30;208.93;;;;;;;5.47;42.09;99327.81;4976805;28;20031;-64
2021/03/07 10:07:45;;;;;;;432.90;210.27;;;;;;;5.55;42.43;99327.91;4978487;28;20023;-67
2021/03/07 10:10:21;;;;;;;437.77;213.97;;;;;;;5.78;41.82;99329.03;4978395;28;20023;-67
2021/03/07 10:12:56;;;;;;;434.40;209.27;;;;;;;5.84;41.43;99329.09;4972776;28;20023;-67
2021/03/07 10:15:29;;;;;;;440.60;211.50;;;;;;;5.77;41.01;99322.25;4977722;28;20398;-67
2021/03/07 10:17:57;;;;;;;436.20;207.33;;;;;;;5.83;41.38;99319.75;4978653;28;20041;-66
2021/03/07 10:20:24;;;;;;;437.80;212.77;;;;;;;6.01;40.13;99309.81;4977814;28;20026;-67
2021/03/07 10:22:54;;;;;;;436.67;208.17;;;;;;;6.10;40.06;99309.91;4977746;28;20022;-67
2021/03/07 10:25:32;;;;;;;445.23;215.47;;;;;;;6.27;39.66;99312.59;4977497;28;20104;-68
2021/03/07 10:28:03;;;;;;;435.60;207.97;;;;;;;6.27;38.83;99307.50;4978597;28;20027;-67
2021/03/07 10:30:41;;;;;;;444.80;216.67;;;;;;;6.23;39.20;99295.59;4977042;28;20027;-67
2021/03/07 10:33:26;;;;;;;439.90;209.70;;;;;;;6.09;39.40;99289.50;4976776;28;20034;-67
2021/03/07 10:36:15;;;;;;;449.57;214.00;;;;;;;6.16;39.18;99286.19;4978565;28;20053;-67
2021/03/07 10:38:43;;;;;;;448.20;212.30;;;;;;;5.97;39.30;99277.53;4977290;28;20034;-67
2021/03/07 10:41:24;;;;;;;453.27;217.20;;;;;;;6.24;39.00;99275.22;4977669;28;20023;-68
2021/03/07 10:43:56;;;;;;;458.47;227.43;;;;;;;6.31;38.97;99273.59;4977771;28;20027;-66
2021/03/07 10:46:39;;;;;;;458.50;228.07;;;;;;;6.22;38.78;99271.81;4975544;28;20042;-67
2021/03/07 10:49:09;;;;;;;458.50;233.03;;;;;;;6.21;38.71;99269.25;4975703;28;20113;-67
2021/03/07 10:51:35;;;;;;;458.93;232.50;;;;;;;5.92;39.47;99256.28;4977668;28;20102;-67
2021/03/07 10:54:01;;;;;;;462.27;236.03;;;;;;;6.18;39.26;99248.88;4976851;28;20111;-66
2021/03/07 10:56:32;;;;;;;460.93;230.53;;;;;;;6.44;38.85;99255.03;4976794;28;20031;-66
2021/03/07 10:58:58;;;;;;;458.93;228.27;;;;;;;6.47;38.54;99249.09;4955431;28;20023;-66
2021/03/07 11:01:24;;;;;;;461.47;239.00;;;;;;;6.51;37.88;99250.81;4975830;28;20031;-67
2021/03/07 11:03:49;;;;;;;461.63;240.17;;;;;;;6.75;37.13;99243.31;4977312;28;20062;-66
2021/03/07 11:06:15;;;;;;;460.27;238.60;;;;;;;6.72;36.87;99241.63;4976618;28;20333;-67
2021/03/07 11:08:41;;;;;;;459.03;236.50;;;;;;;6.75;37.09;99234.00;4982187;28;20030;-67
2021/03/07 11:11:07;;;;;;;464.90;245.40;;;;;;;6.86;36.51;99229.81;4981819;28;20028;-66
2021/03/07 11:13:33;;;;;;;460.10;244.53;;;;;;;6.61;36.71;99227.97;4981501;28;20041;-66
2021/03/07 11:15:59;;;;;;;461.87;248.20;;;;;;;6.82;36.92;99229.78;4981900;28;20269;-67
2021/03/07 11:18:24;;;;;;;429.10;246.90;;;;;;;6.89;37.33;99217.09;4984523;28;20121;-68